createdAt,value
2018-03-04T00:01:47.658Z,38.88
2018-03-04T00:04:15.593Z,36.33
2018-03-04T00:06:43.533Z,39.78
2018-03-04T00:09:11.473Z,38.15
2018-03-04T00:11:39.416Z,43.22
2018-03-04T00:14:07.380Z,37.28
2018-03-04T00:16:35.305Z,39.15
2018-03-04T00:19:03.239Z,38.97
2018-03-04T00:21:31.214Z,41.05
2018-03-04T00:23:59.169Z,40.55
2018-03-04T00:26:28.149Z,41.00
2018-03-04T00:28:56.101Z,39.42
2018-03-04T00:31:26.095Z,39.47
2018-03-04T00:33:54.054Z,44.40
2018-03-04T00:36:21.994Z,39.67
2018-03-04T00:38:49.933Z,41.55
2018-03-04T00:41:17.885Z,39.40
2018-03-04T00:43:45.810Z,41.60
2018-03-04T00:46:13.730Z,39.22
2018-03-04T00:48:41.704Z,38.05
2018-03-04T00:51:09.625Z,39.88
2018-03-04T00:53:38.634Z,40.53
2018-03-04T00:56:06.593Z,39.90
2018-03-04T00:58:34.545Z,40.83
2018-03-04T01:01:02.489Z,41.70
2018-03-04T01:03:30.433Z,37.50
2018-03-04T01:05:58.341Z,38.33
2018-03-04T01:08:26.297Z,42.50
2018-03-04T01:10:54.277Z,39.47
2018-03-04T01:13:22.230Z,40.45
2018-03-04T01:15:50.146Z,40.15
2018-03-04T01:18:18.094Z,43.90
2018-03-04T01:20:46.038Z,40.33
2018-03-04T01:23:13.957Z,41.75
2018-03-04T01:25:41.918Z,38.95
2018-03-04T01:28:09.870Z,39.85
2018-03-04T01:30:37.806Z,42.00
2018-03-04T01:33:05.757Z,41.60
2018-03-04T01:35:33.690Z,40.85
2018-03-04T01:38:01.619Z,41.10
2018-03-04T01:40:29.562Z,40.42
2018-03-04T01:42:57.509Z,41.22
2018-03-04T01:45:25.470Z,42.17
2018-03-04T01:47:53.415Z,42.15
2018-03-04T01:50:21.346Z,38.72
2018-03-04T01:52:49.294Z,41.88
2018-03-04T01:55:17.228Z,37.65
2018-03-04T01:57:45.157Z,42.33
2018-03-04T02:00:14.195Z,41.72
2018-03-04T02:02:42.138Z,44.85
2018-03-04T02:05:10.070Z,42.95
2018-03-04T02:07:38.046Z,43.22
2018-03-04T02:10:06.000Z,39.63
2018-03-04T02:12:33.949Z,43.10
2018-03-04T02:15:01.874Z,41.40
2018-03-04T02:17:29.802Z,42.10
2018-03-04T02:19:57.743Z,42.83
2018-03-04T02:22:25.667Z,41.53
2018-03-04T02:24:53.626Z,41.20
2018-03-04T02:27:21.557Z,41.67
2018-03-04T02:29:49.478Z,42.28
2018-03-04T02:32:17.429Z,43.97
2018-03-04T02:34:45.365Z,42.40
2018-03-04T02:37:13.285Z,43.47
2018-03-04T02:39:41.238Z,44.30
2018-03-04T02:42:09.178Z,42.62
2018-03-04T02:44:37.106Z,41.75
2018-03-04T02:47:05.087Z,42.45
2018-03-04T02:49:33.026Z,43.28
2018-03-04T02:52:02.041Z,41.13
2018-03-04T02:54:29.998Z,41.28
2018-03-04T02:56:57.914Z,43.22
2018-03-04T02:59:26.153Z,42.53
2018-03-04T03:01:54.099Z,44.03
2018-03-04T03:04:22.034Z,42.72
2018-03-04T03:06:50.003Z,43.90
2018-03-04T03:09:17.941Z,43.45
2018-03-04T03:11:45.866Z,45.60
2018-03-04T03:14:13.804Z,41.70
2018-03-04T03:16:41.746Z,42.72
2018-03-04T03:19:09.666Z,42.92
2018-03-04T03:21:37.605Z,43.13
2018-03-04T03:24:05.542Z,42.38
2018-03-04T03:26:33.486Z,40.53
2018-03-04T03:29:01.425Z,42.78
2018-03-04T03:31:29.358Z,39.45
2018-03-04T03:33:57.278Z,42.95
2018-03-04T03:36:25.222Z,39.80
2018-03-04T03:38:53.181Z,46.95
2018-03-04T03:41:21.111Z,43.40
2018-03-04T03:43:49.062Z,46.08
2018-03-04T03:46:16.997Z,44.97
2018-03-04T03:48:44.932Z,43.42
2018-03-04T03:51:12.873Z,44.60
2018-03-04T03:53:40.819Z,50.03
2018-03-04T03:56:08.754Z,47.13
2018-03-04T03:58:36.668Z,47.20
2018-03-04T04:01:04.606Z,45.80
2018-03-04T04:03:32.560Z,44.08
2018-03-04T04:06:01.540Z,43.45
2018-03-04T04:08:29.492Z,43.20
2018-03-04T04:10:57.418Z,44.05
2018-03-04T04:13:25.342Z,46.28
2018-03-04T04:15:53.286Z,47.17
2018-03-04T04:18:21.200Z,42.70
2018-03-04T04:20:49.130Z,46.17
2018-03-04T04:23:17.073Z,45.83
2018-03-04T04:25:45.001Z,45.75
2018-03-04T04:28:12.931Z,45.90
2018-03-04T04:30:40.869Z,47.00
2018-03-04T04:33:08.797Z,47.38
2018-03-04T04:35:36.748Z,45.88
2018-03-04T04:38:04.682Z,45.78
2018-03-04T04:40:33.700Z,43.55
2018-03-04T04:43:01.642Z,42.80
2018-03-04T04:45:29.573Z,46.47
2018-03-04T04:47:57.506Z,46.05
2018-03-04T04:50:25.421Z,43.42
2018-03-04T04:52:53.368Z,49.20
2018-03-04T04:55:21.303Z,43.78
2018-03-04T04:57:49.230Z,46.88
2018-03-04T05:00:17.193Z,48.35
2018-03-04T05:02:45.118Z,43.22
2018-03-04T05:05:13.070Z,47.90
2018-03-04T05:07:41.141Z,44.58
2018-03-04T05:10:09.086Z,44.72
2018-03-04T05:12:37.031Z,47.22
2018-03-04T05:15:04.960Z,48.05
2018-03-04T05:17:32.891Z,47.88
2018-03-04T05:20:00.862Z,46.03
2018-03-04T05:22:28.792Z,45.17
2018-03-04T05:24:56.726Z,43.03
2018-03-04T05:27:24.674Z,51.97
2018-03-04T05:29:52.594Z,44.55
2018-03-04T05:32:20.541Z,46.37
2018-03-04T05:34:48.506Z,47.15
2018-03-04T05:37:16.442Z,44.05
2018-03-04T05:39:44.448Z,42.78
2018-03-04T05:42:12.451Z,50.67
2018-03-04T05:44:40.338Z,44.33
2018-03-04T05:47:09.302Z,44.33
2018-03-04T05:49:37.242Z,45.92
2018-03-04T05:52:05.189Z,43.00
2018-03-04T05:54:33.140Z,42.97
2018-03-04T05:57:01.086Z,46.75
2018-03-04T05:59:29.025Z,47.00
2018-03-04T06:01:56.942Z,48.10
2018-03-04T06:04:24.889Z,45.00
2018-03-04T06:06:52.818Z,48.05
2018-03-04T06:09:20.745Z,42.33
2018-03-04T06:11:49.766Z,45.95
2018-03-04T06:14:17.703Z,44.88
2018-03-04T06:16:45.637Z,48.47
2018-03-04T06:19:13.571Z,41.70
2018-03-04T06:21:41.505Z,45.12
2018-03-04T06:24:09.433Z,49.10
2018-03-04T06:26:37.390Z,45.50
2018-03-04T06:29:05.334Z,46.35
2018-03-04T06:31:33.258Z,48.28
2018-03-04T06:34:01.250Z,64.68
2018-03-04T06:36:29.208Z,52.65
2018-03-04T06:38:57.129Z,52.67
2018-03-04T06:41:25.088Z,50.65
2018-03-04T06:43:53.002Z,50.17
2018-03-04T06:46:20.942Z,54.08
2018-03-04T06:48:48.892Z,48.75
2018-03-04T06:51:16.834Z,42.78
2018-03-04T06:53:44.771Z,48.87
2018-03-04T06:56:12.721Z,48.50
2018-03-04T06:58:40.653Z,51.35
2018-03-04T07:01:09.574Z,51.15
2018-03-04T07:03:37.525Z,48.08
2018-03-04T07:06:05.441Z,51.65
2018-03-04T07:08:33.383Z,50.00
2018-03-04T07:11:01.336Z,64.80
2018-03-04T07:13:29.253Z,56.50
2018-03-04T07:15:57.190Z,50.53
2018-03-04T07:18:25.130Z,53.28
2018-03-04T07:20:53.065Z,45.63
2018-03-04T07:23:21.003Z,48.72
2018-03-04T07:25:48.941Z,52.28
2018-03-04T07:28:16.889Z,48.97
2018-03-04T07:30:44.805Z,48.60
2018-03-04T07:33:12.745Z,51.22
2018-03-04T07:35:40.686Z,53.50
2018-03-04T07:38:08.606Z,49.08
2018-03-04T07:40:36.584Z,50.47
2018-03-04T07:43:04.526Z,53.90
2018-03-04T07:45:32.457Z,54.03
2018-03-04T07:48:00.389Z,49.70
2018-03-04T07:50:28.361Z,48.35
2018-03-04T07:52:57.421Z,54.05
2018-03-04T07:55:25.378Z,53.33
2018-03-04T07:57:53.426Z,56.28
2018-03-04T08:00:21.350Z,54.28
2018-03-04T08:02:49.298Z,53.00
2018-03-04T08:05:17.233Z,51.65
2018-03-04T08:07:45.157Z,53.87
2018-03-04T08:10:13.118Z,50.38
2018-03-04T08:12:41.049Z,51.42
2018-03-04T08:15:08.992Z,49.60
2018-03-04T08:17:36.930Z,53.10
2018-03-04T08:20:05.422Z,51.08
2018-03-04T08:22:33.360Z,51.50
2018-03-04T08:25:08.398Z,50.88
2018-03-04T08:27:56.209Z,51.85
2018-03-04T08:30:24.149Z,51.30
2018-03-04T08:32:52.098Z,48.05
2018-03-04T08:35:20.026Z,47.58
2018-03-04T08:37:47.968Z,52.92
2018-03-04T08:40:15.905Z,53.00
2018-03-04T08:42:43.829Z,54.15
2018-03-04T08:45:11.765Z,49.45
2018-03-04T08:47:39.698Z,49.58
2018-03-04T08:50:07.638Z,51.10
2018-03-04T08:52:35.586Z,50.97
2018-03-04T08:55:03.526Z,51.30
2018-03-04T08:57:31.447Z,53.50
2018-03-04T08:59:59.413Z,50.92
2018-03-04T09:02:27.350Z,54.38
2018-03-04T09:04:55.297Z,52.45
2018-03-04T09:07:23.249Z,51.33
2018-03-04T09:09:51.175Z,50.35
2018-03-04T09:12:19.108Z,51.60
2018-03-04T09:14:47.111Z,51.53
2018-03-04T09:17:15.029Z,48.92
2018-03-04T09:19:43.004Z,52.30
2018-03-04T09:22:10.934Z,56.37
2018-03-04T09:24:38.970Z,66.78
2018-03-04T09:27:06.919Z,58.30
2018-03-04T09:29:34.901Z,50.10
2018-03-04T09:32:02.832Z,50.83
2018-03-04T09:34:30.774Z,51.72
2018-03-04T09:36:58.709Z,44.55
2018-03-04T09:39:26.703Z,66.00
2018-03-04T09:41:54.629Z,49.72
2018-03-04T09:44:22.620Z,48.67
2018-03-04T09:46:50.564Z,47.80
2018-03-04T09:49:18.502Z,44.60
2018-03-04T09:51:46.462Z,58.72
2018-03-04T09:54:14.398Z,44.58
2018-03-04T09:56:42.336Z,42.53
2018-03-04T09:59:10.309Z,40.20
2018-03-04T10:01:38.239Z,38.92
2018-03-04T10:04:06.173Z,40.03
2018-03-04T10:06:35.274Z,36.72
2018-03-04T10:09:03.271Z,37.63
2018-03-04T10:11:31.202Z,40.60
2018-03-04T10:13:59.158Z,37.72
2018-03-04T10:16:27.086Z,39.47
2018-03-04T10:18:56.095Z,35.67
2018-03-04T10:21:24.072Z,36.00
2018-03-04T10:23:52.017Z,32.25
2018-03-04T10:26:19.969Z,33.05
2018-03-04T10:28:48.924Z,31.90
2018-03-04T10:31:16.841Z,28.27
2018-03-04T10:33:44.769Z,29.40
2018-03-04T10:36:12.760Z,28.75
2018-03-04T10:38:40.701Z,29.15
2018-03-04T10:41:10.722Z,25.48
2018-03-04T10:43:38.663Z,28.25
2018-03-04T10:46:06.598Z,30.85
2018-03-04T10:48:34.586Z,27.20
2018-03-04T10:51:02.538Z,28.12
2018-03-04T10:53:30.463Z,28.62
2018-03-04T10:55:58.422Z,32.60
2018-03-04T10:58:26.370Z,32.50
2018-03-04T11:00:54.318Z,30.20
2018-03-04T11:03:22.290Z,32.97
2018-03-04T11:05:50.266Z,31.40
2018-03-04T11:08:18.281Z,32.78
2018-03-04T11:10:46.274Z,35.50
2018-03-04T11:13:14.206Z,32.15
2018-03-04T11:15:42.137Z,31.92
2018-03-04T11:18:10.087Z,31.55
2018-03-04T11:20:38.074Z,29.33
2018-03-04T11:23:06.018Z,29.45
2018-03-04T11:25:33.974Z,29.00
2018-03-04T11:28:01.970Z,32.53
2018-03-04T11:30:29.913Z,30.17
2018-03-04T11:32:58.866Z,30.20
2018-03-04T11:35:26.801Z,33.85
2018-03-04T11:37:54.757Z,28.95
2018-03-04T11:40:22.746Z,31.25
2018-03-04T11:42:50.744Z,29.90
2018-03-04T11:45:18.719Z,33.47
2018-03-04T11:47:46.710Z,32.43
2018-03-04T11:50:14.658Z,34.47
2018-03-04T11:52:42.600Z,32.37
2018-03-04T11:55:10.553Z,34.63
2018-03-04T11:57:38.678Z,33.70
2018-03-04T12:00:06.897Z,37.17
2018-03-04T12:02:35.070Z,32.37
2018-03-04T12:05:04.162Z,30.03
2018-03-04T12:07:32.110Z,33.67
2018-03-04T12:10:00.074Z,31.93
2018-03-04T12:12:28.014Z,33.87
2018-03-04T12:14:55.961Z,31.60
2018-03-04T12:17:23.900Z,32.70
2018-03-04T12:19:51.817Z,31.27
2018-03-04T12:22:19.767Z,33.47
2018-03-04T12:24:47.705Z,34.10
2018-03-04T12:27:15.642Z,33.50
2018-03-04T12:29:43.590Z,33.87
2018-03-04T12:32:11.533Z,35.50
2018-03-04T12:34:39.477Z,34.73
2018-03-04T12:37:07.402Z,38.10
2018-03-04T12:39:35.449Z,33.80
2018-03-04T12:42:03.402Z,37.27
2018-03-04T12:44:31.334Z,37.57
2018-03-04T12:46:59.285Z,35.80
2018-03-04T12:49:27.213Z,36.80
2018-03-04T12:51:55.146Z,36.77
2018-03-04T12:54:23.166Z,35.87
2018-03-04T12:56:51.088Z,35.20
2018-03-04T12:59:19.026Z,36.40
2018-03-04T13:01:46.985Z,34.73
2018-03-04T13:04:14.933Z,35.20
2018-03-04T13:06:42.854Z,35.70
2018-03-04T13:09:10.829Z,34.93
2018-03-04T13:11:38.754Z,34.73
2018-03-04T13:14:06.685Z,32.47
2018-03-04T13:16:34.657Z,31.80
2018-03-04T13:19:03.630Z,32.30
2018-03-04T13:21:31.558Z,31.17
2018-03-04T13:23:59.514Z,31.77
2018-03-04T13:26:27.453Z,32.20
2018-03-04T13:28:56.089Z,31.93
2018-03-04T13:31:24.026Z,31.10
2018-03-04T13:33:51.962Z,32.90
2018-03-04T13:36:19.901Z,31.40
2018-03-04T13:38:47.841Z,32.43
2018-03-04T13:41:15.799Z,29.60
2018-03-04T13:43:43.751Z,28.60
2018-03-04T13:46:11.697Z,30.50
2018-03-04T13:48:39.636Z,27.63
2018-03-04T13:51:07.568Z,31.03
2018-03-04T13:53:36.577Z,29.30
2018-03-04T13:56:04.538Z,29.53
2018-03-04T13:58:32.485Z,29.90
2018-03-04T14:01:00.473Z,29.63
2018-03-04T14:03:28.446Z,26.57
2018-03-04T14:05:56.381Z,25.07
2018-03-04T14:08:24.337Z,25.97
2018-03-04T14:10:52.273Z,27.30
2018-03-04T14:13:20.194Z,26.07
2018-03-04T14:15:49.165Z,26.70
2018-03-04T14:18:17.099Z,28.87
2018-03-04T14:20:45.018Z,27.10
2018-03-04T14:23:12.995Z,25.57
2018-03-04T14:25:40.950Z,24.83
2018-03-04T14:28:08.885Z,27.00
2018-03-04T14:30:36.853Z,26.23
2018-03-04T14:33:04.789Z,25.67
2018-03-04T14:35:32.735Z,23.27
2018-03-04T14:38:00.706Z,25.30
2018-03-04T14:40:28.645Z,25.03
2018-03-04T14:42:57.210Z,24.13
2018-03-04T14:45:25.158Z,24.90
2018-03-04T14:47:53.101Z,23.13
2018-03-04T14:50:21.032Z,23.50
2018-03-04T14:52:49.001Z,22.20
2018-03-04T14:55:16.952Z,21.23
2018-03-04T14:57:44.921Z,23.70
2018-03-04T15:00:12.874Z,23.10
2018-03-04T15:02:40.807Z,23.00
2018-03-04T15:05:08.764Z,22.17
2018-03-04T15:07:36.698Z,25.00
2018-03-04T15:10:04.650Z,22.53
2018-03-04T15:12:32.602Z,25.67
2018-03-04T15:15:00.557Z,23.60
2018-03-04T15:17:28.499Z,23.00
2018-03-04T15:19:56.442Z,24.33
2018-03-04T15:22:24.414Z,24.40
2018-03-04T15:24:52.350Z,24.73
2018-03-04T15:27:20.298Z,25.50
2018-03-04T15:29:48.262Z,23.20
2018-03-04T15:32:16.209Z,23.83
2018-03-04T15:34:44.338Z,23.07
2018-03-04T15:37:12.278Z,25.73
2018-03-04T15:39:41.230Z,26.03
2018-03-04T15:42:09.173Z,24.77
2018-03-04T15:44:37.118Z,25.67
2018-03-04T15:47:05.070Z,26.17
2018-03-04T15:49:33.014Z,25.10
2018-03-04T15:52:00.977Z,25.80
2018-03-04T15:54:28.905Z,27.00
2018-03-04T15:56:56.845Z,27.67
2018-03-04T15:59:24.812Z,26.40
2018-03-04T16:01:52.778Z,27.20
2018-03-04T16:04:21.778Z,23.50
2018-03-04T16:06:49.718Z,25.20
2018-03-04T16:09:17.662Z,24.47
2018-03-04T16:11:45.634Z,24.27
2018-03-04T16:14:13.598Z,24.30
2018-03-04T16:16:41.530Z,21.73
2018-03-04T16:19:09.481Z,23.77
2018-03-04T16:21:37.444Z,23.70
2018-03-04T16:24:05.396Z,20.87
2018-03-04T16:26:33.359Z,23.10
2018-03-04T16:29:01.346Z,22.93
2018-03-04T16:31:29.237Z,20.20
2018-03-04T16:33:57.174Z,21.10
2018-03-04T16:36:25.117Z,23.57
2018-03-04T16:38:53.065Z,22.15
2018-03-04T16:41:21.021Z,20.88
2018-03-04T16:43:48.974Z,19.45
2018-03-04T16:46:16.922Z,19.77
2018-03-04T16:48:44.878Z,22.98
2018-03-04T16:51:12.853Z,20.67
2018-03-04T16:53:41.670Z,21.03
2018-03-04T16:56:09.616Z,22.15
2018-03-04T16:58:37.567Z,20.10
2018-03-04T17:01:05.513Z,20.70
2018-03-04T17:03:33.440Z,18.87
2018-03-04T17:06:01.394Z,19.83
2018-03-04T17:08:29.349Z,20.17
2018-03-04T17:10:57.282Z,20.92
2018-03-04T17:13:25.225Z,16.87
2018-03-04T17:15:53.198Z,21.35
2018-03-04T17:18:21.130Z,22.58
2018-03-04T17:20:49.081Z,25.88
2018-03-04T17:23:17.025Z,24.70
2018-03-04T17:25:44.960Z,27.08
2018-03-04T17:28:12.924Z,25.50
2018-03-04T17:30:40.869Z,24.10
2018-03-04T17:33:08.796Z,27.20
2018-03-04T17:35:36.765Z,29.27
2018-03-04T17:38:04.710Z,27.27
2018-03-04T17:40:32.662Z,27.70
2018-03-04T17:43:00.608Z,27.35
2018-03-04T17:45:28.557Z,27.60
2018-03-04T17:47:56.526Z,26.80
2018-03-04T17:50:24.477Z,29.30
2018-03-04T17:52:52.426Z,28.27
2018-03-04T17:55:20.370Z,25.05
2018-03-04T17:57:48.325Z,25.73
2018-03-04T18:00:16.273Z,27.10
2018-03-04T18:02:44.272Z,26.60
2018-03-04T18:05:12.239Z,27.27
2018-03-04T18:07:40.172Z,27.27
2018-03-04T18:10:08.142Z,27.40
2018-03-04T18:12:36.078Z,27.58
2018-03-04T18:15:04.037Z,25.88
2018-03-04T18:17:31.991Z,26.15
2018-03-04T18:19:59.934Z,28.00
2018-03-04T18:22:27.861Z,25.65
2018-03-04T18:24:55.847Z,25.30
2018-03-04T18:27:23.746Z,27.10
2018-03-04T18:29:51.682Z,24.98
2018-03-04T18:32:19.638Z,25.15
2018-03-04T18:34:47.574Z,28.30
2018-03-04T18:37:15.592Z,24.20
2018-03-04T18:39:43.541Z,25.75
2018-03-04T18:42:12.574Z,23.15
2018-03-04T18:44:40.523Z,23.58
2018-03-04T18:47:08.487Z,23.67
2018-03-04T18:49:36.424Z,24.70
2018-03-04T18:52:04.374Z,22.05
2018-03-04T18:54:33.538Z,22.95
2018-03-04T18:57:02.022Z,22.02
2018-03-04T18:59:29.968Z,20.48
2018-03-04T19:01:57.918Z,20.40
2018-03-04T19:04:25.861Z,19.50
2018-03-04T19:06:53.790Z,20.62
2018-03-04T19:09:21.746Z,20.42
2018-03-04T19:11:49.714Z,19.10
2018-03-04T19:14:17.646Z,19.42
2018-03-04T19:16:45.607Z,18.70
2018-03-04T19:19:13.538Z,19.50
2018-03-04T19:21:41.477Z,19.58
2018-03-04T19:24:09.454Z,16.00
2018-03-04T19:26:37.394Z,16.37
2018-03-04T19:29:05.345Z,16.20
2018-03-04T19:31:33.356Z,16.98
2018-03-04T19:34:01.279Z,15.98
2018-03-04T19:36:29.230Z,16.25
2018-03-04T19:38:57.190Z,16.20
2018-03-04T19:41:25.119Z,18.15
2018-03-04T19:43:53.050Z,16.27
2018-03-04T19:46:21.121Z,15.50
2018-03-04T19:48:49.058Z,17.30
2018-03-04T19:51:17.006Z,16.98
2018-03-04T19:53:45.202Z,16.30
2018-03-04T19:56:13.140Z,16.17
2018-03-04T19:58:41.086Z,16.65
2018-03-04T20:01:09.038Z,15.85
2018-03-04T20:03:36.966Z,16.98
2018-03-04T20:06:05.806Z,15.45
2018-03-04T20:08:33.770Z,16.83
2018-03-04T20:11:01.745Z,17.25
2018-03-04T20:13:30.778Z,15.60
2018-03-04T20:15:58.740Z,14.25
2018-03-04T20:18:26.707Z,16.70
2018-03-04T20:20:54.655Z,14.85
2018-03-04T20:23:22.614Z,16.90
2018-03-04T20:25:50.543Z,15.80
2018-03-04T20:28:18.497Z,14.52
2018-03-04T20:30:46.458Z,16.05
2018-03-04T20:33:14.406Z,13.65
2018-03-04T20:35:42.346Z,14.20
2018-03-04T20:38:10.281Z,14.68
2018-03-04T20:40:38.244Z,15.30
2018-03-04T20:43:06.219Z,16.15
2018-03-04T20:45:34.186Z,15.48
2018-03-04T20:48:02.133Z,15.57
2018-03-04T20:50:30.072Z,16.15
2018-03-04T20:52:58.112Z,16.23
2018-03-04T20:55:26.057Z,14.15
2018-03-04T20:57:53.997Z,16.55
2018-03-04T21:00:21.973Z,15.18
2018-03-04T21:02:49.918Z,14.32
2018-03-04T21:05:17.861Z,15.25
2018-03-04T21:07:45.834Z,14.07
2018-03-04T21:10:13.804Z,15.82
2018-03-04T21:12:41.755Z,15.65
2018-03-04T21:15:09.690Z,14.45
2018-03-04T21:17:37.682Z,14.40
2018-03-04T21:20:05.613Z,14.02
2018-03-04T21:22:33.567Z,13.45
2018-03-04T21:25:01.533Z,16.20
2018-03-04T21:27:29.525Z,15.15
2018-03-04T21:29:57.552Z,17.00
2018-03-04T21:32:25.494Z,16.00
2018-03-04T21:34:53.448Z,17.12
2018-03-04T21:37:21.398Z,15.38
2018-03-04T21:39:49.345Z,16.42
2018-03-04T21:42:17.292Z,16.52
2018-03-04T21:44:45.250Z,16.80
2018-03-04T21:47:13.295Z,15.98
2018-03-04T21:49:41.253Z,15.85
2018-03-04T21:52:09.207Z,15.00
2018-03-04T21:54:37.153Z,15.30
2018-03-04T21:57:05.109Z,15.63
2018-03-04T21:59:33.066Z,15.93
2018-03-04T22:02:00.990Z,15.77
2018-03-04T22:04:28.909Z,14.40
2018-03-04T22:06:56.889Z,15.88
2018-03-04T22:09:24.878Z,16.48
2018-03-04T22:11:52.802Z,15.90
2018-03-04T22:14:21.751Z,15.10
2018-03-04T22:16:49.762Z,16.98
2018-03-04T22:19:17.745Z,17.10
2018-03-04T22:21:45.912Z,16.17
2018-03-04T22:24:13.966Z,17.85
2018-03-04T22:26:42.089Z,16.02
2018-03-04T22:29:10.374Z,22.30
2018-03-04T22:31:38.478Z,20.02
2018-03-04T22:34:06.517Z,25.05
2018-03-04T22:36:34.610Z,20.15
2018-03-04T22:39:02.758Z,22.45
2018-03-04T22:41:30.787Z,19.83
2018-03-04T22:43:58.880Z,20.60
2018-03-04T22:46:26.966Z,19.95
2018-03-04T22:48:55.000Z,20.00
2018-03-04T22:51:23.054Z,19.58
2018-03-04T22:53:51.123Z,20.65
2018-03-04T22:56:19.151Z,21.40
2018-03-04T22:58:47.221Z,19.30
2018-03-04T23:01:15.274Z,22.52
2018-03-04T23:03:43.369Z,19.83
2018-03-04T23:06:12.639Z,24.33
2018-03-04T23:08:40.638Z,24.95
2018-03-04T23:11:08.682Z,22.10
2018-03-04T23:13:36.747Z,22.48
2018-03-04T23:16:05.114Z,22.33
2018-03-04T23:18:33.138Z,25.05
2018-03-04T23:21:01.196Z,21.85
2018-03-04T23:23:29.203Z,24.05
2018-03-04T23:25:57.258Z,23.40
2018-03-04T23:28:25.307Z,23.85
2018-03-04T23:30:53.370Z,22.55
2018-03-04T23:33:21.403Z,24.40
2018-03-04T23:35:49.462Z,22.27
2018-03-04T23:38:17.480Z,22.23
2018-03-04T23:40:45.513Z,24.70
2018-03-04T23:43:13.582Z,22.20
2018-03-04T23:45:41.679Z,21.02
2018-03-04T23:48:09.739Z,23.23
2018-03-04T23:50:37.793Z,24.37
2018-03-04T23:53:05.827Z,23.27
2018-03-04T23:55:33.878Z,23.98
2018-03-04T23:58:01.934Z,26.95
